Aviation Digital Data Service (ADDS)

Output produced by METARs form (2037 UTC 21 July 2017)
found at http://www.aviationweather.gov/adds/metars/
 
TAF KBAB 211905Z 2119/2301 24006KT 9999 SKC QNH2983INS 
     BECMG 2203/2204 VRB06KT 9999 SKC QNH2984INS 
     BECMG 2217/2218 24006KT 9999 SKC QNH2980INS TX37/2123Z TN17/2213Z
       
TAF AMD KBAD 211920Z 2119/2224 20009KT 9999 FEW050 SCT250 QNH2987INS 
     TEMPO 2119/2123 12010G15KT 8000 -TSRA BKN050CB 
     BECMG 2122/2123 18006KT 9999 SKC QNH2990INS 
     BECMG 2214/2215 18012KT 9999 FEW050 QNH2987INS TX37/2121Z TN25/2212Z
       
KBAF 211931Z 2120/2218 28010KT P6SM FEW040 
     FM220200 VRB03KT P6SM FEW150
       
KBBD 211732Z 2118/2218 20010KT P6SM FEW250 
     FM220200 18007KT P6SM SCT250 
     FM221500 16012KT P6SM SCT250 AMD NOT SKED
       
KBBG 211721Z 2118/2218 22005KT P6SM FEW070
       
KBCB 211722Z 2118/2218 29010KT P6SM VCTS BKN050CB 
     FM220000 VRB03KT P6SM SCT150 
     FM220200 00000KT P6SM BKN050 
     FM220800 00000KT 2SM BR SCT090 
     FM221600 25004KT P6SM BKN050
       
KBCE 211723Z 2118/2218 28006KT P6SM FEW090 SCT180 
     FM211900 33009KT P6SM -SHRA VCTS SCT070CB BKN140 
     FM212300 31008KT P6SM VCSH SCT060 BKN140 
     FM220200 29006KT P6SM FEW070 SCT140
       
KBDL 211931Z 2120/2224 29010KT P6SM FEW040 
     FM220200 30004KT P6SM FEW150
       
KBDR 211930Z 2120/2218 22012KT P6SM FEW050 
     FM212300 25008KT P6SM FEW060 
     FM220400 36004KT P6SM FEW060 
     FM221400 21008KT P6SM FEW060
       
KBED 211931Z 2120/2218 28009KT P6SM FEW050 
     FM220200 27004KT P6SM FEW150
       
KBFD 211757Z 2118/2218 VRB04KT P6SM FEW040 
     FM220400 00000KT 4SM BR SCT250 
     FM220600 00000KT 1/2SM FG SCT250 
     FM220800 00000KT 1/4SM FG BKN003 
     FM221300 00000KT 2SM BR BKN001 
     FM221400 20002KT P6SM BKN250
       
KBFF 211722Z 2118/2218 32010KT P6SM SCT120 
     FM220400 30005KT P6SM SCT200
       
KBFI 211738Z 2118/2218 21004KT P6SM FEW025 SCT120 BKN200 
     FM212100 25004KT P6SM BKN120 BKN200 
     FM220100 VRB03KT P6SM SCT100 BKN200 
     FM220900 15004KT P6SM BKN050 OVC100 
     FM221400 16006KT P6SM SCT030 BKN040 OVC080
       
KBFL 211720Z 2118/2218 VRB04KT P6SM SKC 
     FM211900 31010KT P6SM SKC 
     FM220200 VRB04KT P6SM SKC
       
KBFM 211722Z 2118/2218 13003KT P6SM VCTS SCT020CB BKN150 
     TEMPO 2118/2122 VRB25KT 3SM TSRA BKN020CB 
     FM220300 00000KT P6SM FEW050 BKN250 
     FM221200 00000KT P6SM VCSH SCT020 BKN250 
     PROB30 2212/2218 3SM TSRA BKN020CB
       
KBGM 211732Z 2118/2218 29010KT P6SM FEW040 
     FM220000 32003KT P6SM FEW200 
     FM221500 22005KT P6SM FEW050
       
KBGR 211720Z 2118/2218 26009KT P6SM FEW250
       
KBHB 211858Z 2119/2218 22009KT P6SM FEW250
       
KBHM 211734Z 2118/2218 02006KT P6SM SCT050 
     FM220100 19002KT P6SM SCT035 SCT250 
     FM221500 24005KT P6SM SCT040
       
TAF KBIF 211402Z 2114/2220 VRB06KT 9999 BKN100 OVC150 QNH3012INS 
     BECMG 2117/2118 16012KT 9999 BKN100 BKN150 QNH3009INS 
     BECMG 2120/2121 15015G25KT 9999 VCTS SCT070CB BKN100 QNH3000INS 
     TEMPO 2123/2203 VRB25G35KT 9000 -TSRA BKN070CB 
     BECMG 2203/2204 15009KT 9999 NSW SCT070 BKN130 QNH3001INS TX31/2121Z TN21/2212Z
       
KBIH 211737Z 2118/2218 VRB04KT P6SM SKC 
     FM211900 16012G18KT P6SM FEW150 
     FM220800 VRB05KT P6SM SKC
       
KBIL 211729Z 2118/2218 33015G21KT P6SM SKC 
     FM220300 29010KT P6SM SKC 
     FM221200 22009KT P6SM SKC
       
KBIS 211726Z 2118/2218 20007KT P6SM FEW070 SCT150 
     FM212000 27009KT P6SM VCTS FEW080CB SCT250 
     FM212200 30012KT P6SM VCTS FEW080CB SCT250 
     FM220300 32007KT P6SM SKC 
     FM221300 28006KT P6SM FEW140 FEW250 
     FM221600 30012KT P6SM SKC
       
TAF AMD KBIX 211820Z 2118/2224 20009KT 9999 FEW020 SCT060 QNH2999INS 
     TEMPO 2118/2122 22015G25KT 6000 -TSRA BKN025CB 
     BECMG 2205/2206 24006KT 9999 SCT010 QNH2995INS 
     BECMG 2215/2216 21009KT 9999 FEW025 SCT100 QNH3001INS 
     TEMPO 2218/2222 22010G25KT 6000 -TSRA BKN040CB TX34/2120Z TN26/2210Z
       
KBJC 211725Z 2118/2218 06007KT P6SM FEW120 SCT220 
     FM212100 32013G25KT P6SM VCTS SCT080CB BKN120 
     TEMPO 2122/2202 VRB20G35KT -TSRA BKN080CB 
     FM220300 25009KT P6SM FEW060 SCT090 BKN120 
     FM221500 33010KT P6SM FEW120 SCT200
       
KBJI 211738Z 2118/2218 13009KT P6SM FEW080 
     FM212000 14009KT P6SM VCTS SCT090CB 
     FM220200 10006KT P6SM VCTS BKN070CB 
     FM220300 09006KT P6SM BKN060 
     FM220900 15004KT P6SM SCT040 
     FM221000 VRB03KT P6SM BKN060 
     FM221500 29008KT P6SM BKN040 
     FM221700 29012KT P6SM SCT100
       
KBKE 211731Z 2118/2218 30010KT P6SM SKC 
     FM220300 VRB06KT P6SM SKC
       
TAF AMD KBKF 212021Z 2120/2223 05009KT 9999 VCTS FEW065 SCT085CB SCT110 QNH3009INS 
     TEMPO 2121/2203 VRB20G35KT 8000 -TSRA FEW065 BKN085CB 
     BECMG 2202/2203 21012G18KT 9000 -SHRA SCT050 BKN080 BKN120 QNH3022INS 
     BECMG 2205/2206 29009KT 9000 -SHRA FEW050 SCT075 QNH3015INS 
     BECMG 2208/2209 21009KT 9999 NSW FEW050 SCT075 QNH3012INS 
     BECMG 2219/2220 VRB06KT 9999 VCTS FEW075 SCT090CB QNH3016INS TX34/2120Z TN17/2211Z
       
KBKW 211732Z 2118/2218 28008KT P6SM TSRA BKN070CB 
     FM211900 28007KT P6SM -SHRA VCTS SCT090CB 
     FM212100 28004KT P6SM -SHRA SCT200 
     FM220400 VRB03KT P6SM SCT200 
     FM220600 00000KT 3SM BR SCT200 
     FM221200 VRB03KT P6SM BKN200 
     FM221400 23004KT P6SM BKN150
       
KBLF 211944Z 2120/2218 30008KT P6SM SCT035 BKN050 
     FM212300 30005KT P6SM BKN120 
     FM221300 27007KT P6SM BKN045
       
KBLH 211739Z 2118/2218 18010KT P6SM FEW120
       
KBLI 211738Z 2118/2218 18005KT P6SM BKN120 
     FM220400 19006KT P6SM SCT060 OVC080 
     FM221100 16006KT P6SM SCT035 OVC050 
     TEMPO 2211/2215 -RA
       
TAF KBLV 211600Z 2116/2222 27009KT 9999 FEW060 QNH2988INS WND 22009KT AFT 2121 
     BECMG 2203/2204 21010G15KT 9999 SKC QNH2985INS 
     BECMG 2214/2215 24012G18KT 9999 SKC QNH2977INS TX39/2121Z TN24/2211Z
       
KBMG 211725Z 2118/2218 18007KT P6SM FEW050 SCT150 
     FM212000 22006KT P6SM VCTS BKN050CB BKN200 
     FM220000 VRB03KT P6SM FEW050 SCT150 
     FM221400 23007KT P6SM FEW050 SCT250
       
KBMI 211742Z 2118/2218 19008KT P6SM SCT040 SCT250 
     FM212000 19008KT P6SM VCTS SCT040CB BKN250 
     FM220000 19006KT P6SM SCT250 
     FM220500 22008KT P6SM VCTS SCT040CB BKN120 
     FM221400 24008KT P6SM BKN120
       
KBNA 211720Z 2118/2218 VRB05KT P6SM SCT050 SCT250 
     FM221100 00000KT 4SM BR SCT250 
     FM221200 00000KT P6SM SKC
       
KBNO 211731Z 2118/2218 VRB05KT P6SM SKC 
     FM220200 27008KT P6SM SKC
       
KBOI 212029Z 2120/2218 31006KT P6SM SKC 
     TEMPO 2120/2124 30010G17KT
       
KBOS 211931Z 2120/2224 27009KT P6SM FEW050 
     FM220600 28006KT P6SM FEW040 
     FM221700 12009KT P6SM SCT130
       
KBPI 211928Z 2119/2218 00000KT P6SM SCT100 
     FM212100 32011G20KT P6SM SCT100 
     FM220700 34006KT P6SM SKC
       
KBPK 211738Z 2118/2218 20005KT P6SM SCT045 SCT250 
     FM220100 19003KT P6SM SCT250 
     FM221500 21006KT P6SM SCT045 SCT250
       
KBPT 211902Z 2119/2218 18005KT P6SM SCT040 
     TEMPO 2119/2121 4SM TSRA BKN030CB 
     FM212200 16007KT P6SM VCTS BKN035CB 
     FM220200 VRB03KT P6SM SCT250
       
KBRD 211958Z 2120/2218 15010G17KT P6SM BKN030 
     FM220000 12006KT P6SM BKN035 
     FM220800 10005KT 4SM -SHRA VCTS BKN030CB 
     FM221100 VRB03KT 3SM BR BKN003 
     FM221500 29004KT P6SM BKN010 
     FM221700 29005KT P6SM SCT050
       
KBRL 211730Z 2118/2218 20010KT P6SM SCT035 SCT200 
     FM220600 23009KT P6SM BKN120
       
KBRO 211725Z 2118/2218 15014G19KT P6SM SCT040 
     FM220300 16005KT P6SM SKC 
     FM221400 15014G20KT P6SM FEW040
       
KBTL 211740Z 2118/2218 13004KT P6SM BKN250 
     FM220100 15003KT P6SM -SHRA OVC070 
     FM220700 14005KT 5SM -TSRA BR OVC025CB 
     FM221100 13006KT P6SM VCTS OVC015CB 
     FM221200 08005KT 6SM HZ OVC015
       
KBTM 211720Z 2118/2218 VRB06KT P6SM SKC 
     FM212000 29013G23KT P6SM SKC 
     FM220300 31006KT P6SM SKC
       
KBTR 211736Z 2118/2218 VRB05KT P6SM VCTS SCT035CB 
     FM220300 VRB03KT P6SM FEW150 
     FM221500 00000KT P6SM VCSH SCT035
       
KBTV 211739Z 2118/2218 27007KT P6SM SCT050 SCT120 
     FM220000 28004KT P6SM SCT200 
     FM221100 35005KT P6SM SCT100
       
KBUF 211734Z 2118/2218 28008KT P6SM SCT030 
     FM212000 26006KT P6SM SKC 
     FM220300 VRB03KT P6SM BKN250 
     FM221200 VRB03KT P6SM OVC080 
     FM221600 VRB05KT P6SM VCSH OVC040
       
KBUR 211720Z 2118/2218 17008KT P6SM SKC 
     FM220300 13007KT P6SM SKC 
     FM220700 VRB03KT P6SM SKC
       
KBVI 211725Z 2118/2218 VRB03KT P6SM SCT025 BKN045 
     FM212000 29004KT P6SM BKN110 
     FM220800 00000KT 4SM BR SCT100 
     FM221300 17004KT P6SM VCTS BKN045CB 
     FM221700 20007KT P6SM -SHRA VCTS BKN025CB
       
KBVO 211720Z 2118/2218 20011G17KT P6SM FEW070 
     FM220100 18005KT P6SM SKC 
     FM221500 21009G16KT P6SM SCT060
       
KBWG 211726Z 2118/2218 23006KT P6SM FEW045 SCT250 
     FM220300 00000KT P6SM FEW250 
     FM221400 23006KT P6SM FEW040 FEW250
       
KBWI 211727Z 2118/2224 VRB03KT P6SM BKN060
       
KBYI 211723Z 2118/2218 27008KT P6SM SKC 
     FM220300 VRB05KT P6SM SKC
       
KBZN 211739Z 2118/2224 VRB05KT P6SM SKC 
     FM212200 29010G20KT P6SM FEW050 
     FM220200 32008KT P6SM FEW050